Terminal Aerodrome Forecast
Issued by NWS

Home | Current Version | Previous Version | Text Only | Print | Product List | Glossary On
Versions: 1 2 3 4 5 6 7 8 9 10 11 12 13 14 15 16 17 18 19
000
FTAK31 PAJN 122325
TAFAYA
TAF
PAYA 122325Z 1300/1324 04005KT P6SM SCT003 OVC035
      TEMPO 1300/1304 2SM BR BKN003 OVC035
     FM130500 07003KT P6SM SCT005 SCT035 BKN070
     FM131500 10008KT 5SM -RA BR SCT012 BKN025
     FM132000 11015G25KT 3SM RA BR OVC015
      AMD LTD TO CLD VIS AND WIND=

USA.gov is the U.S. government's official web portal to all federal, state and local government web resources and services.